sensor_id;sensor_type;location;lat;lon;timestamp;pressure;altitude;pressure_sealevel;temperature;humidity
49102;BME280;34913;47.520;19.186;2022-12-20T00:01:23;101752.53;;;-2.34;94.44
49102;BME280;34913;47.520;19.186;2022-12-20T00:03:50;101756.00;;;-2.35;94.66
49102;BME280;34913;47.520;19.186;2022-12-20T00:06:16;101760.34;;;-2.35;94.94
49102;BME280;34913;47.520;19.186;2022-12-20T00:08:43;101757.72;;;-2.40;94.78
49102;BME280;34913;47.520;19.186;2022-12-20T00:11:09;101759.44;;;-2.27;94.72
49102;BME280;34913;47.520;19.186;2022-12-20T00:13:35;101766.34;;;-2.13;94.28
49102;BME280;34913;47.520;19.186;2022-12-20T00:16:05;101769.81;;;-2.08;93.77
49102;BME280;34913;47.520;19.186;2022-12-20T00:18:31;101756.84;;;-2.13;93.45
49102;BME280;34913;47.520;19.186;2022-12-20T00:20:58;101768.09;;;-2.11;93.37
49102;BME280;34913;47.520;19.186;2022-12-20T00:23:23;101772.41;;;-2.05;93.66
49102;BME280;34913;47.520;19.186;2022-12-20T00:25:49;101774.16;;;-2.10;93.38
49102;BME280;34913;47.520;19.186;2022-12-20T00:28:14;101771.59;;;-2.21;93.51
49102;BME280;34913;47.520;19.186;2022-12-20T00:30:39;101762.88;;;-2.11;93.89
49102;BME280;34913;47.520;19.186;2022-12-20T00:33:05;101754.19;;;-2.02;93.97
49102;BME280;34913;47.520;19.186;2022-12-20T00:35:30;101752.44;;;-1.95;93.76
49102;BME280;34913;47.520;19.186;2022-12-20T00:37:56;101756.84;;;-2.13;93.31
49102;BME280;34913;47.520;19.186;2022-12-20T00:40:21;101750.72;;;-2.03;93.18
49102;BME280;34913;47.520;19.186;2022-12-20T00:42:46;101752.44;;;-2.00;93.02
49102;BME280;34913;47.520;19.186;2022-12-20T00:45:12;101742.06;;;-2.03;93.10
49102;BME280;34913;47.520;19.186;2022-12-20T00:47:37;101747.25;;;-2.02;92.89
49102;BME280;34913;47.520;19.186;2022-12-20T00:50:03;101741.19;;;-2.04;93.15
49102;BME280;34913;47.520;19.186;2022-12-20T00:52:29;101736.84;;;-2.00;93.32
49102;BME280;34913;47.520;19.186;2022-12-20T00:54:54;101731.63;;;-2.00;93.56
49102;BME280;34913;47.520;19.186;2022-12-20T00:57:19;101728.16;;;-1.96;93.56
49102;BME280;34913;47.520;19.186;2022-12-20T00:59:45;101715.97;;;-1.88;93.31
49102;BME280;34913;47.520;19.186;2022-12-20T01:02:10;101709.00;;;-1.83;93.14
49102;BME280;34913;47.520;19.186;2022-12-20T01:04:36;101713.34;;;-1.82;92.76
49102;BME280;34913;47.520;19.186;2022-12-20T01:07:01;101700.31;;;-1.82;92.41
49102;BME280;34913;47.520;19.186;2022-12-20T01:09:27;101695.13;;;-1.83;92.44
49102;BME280;34913;47.520;19.186;2022-12-20T01:11:52;101712.47;;;-1.78;91.98
49102;BME280;34913;47.520;19.186;2022-12-20T01:14:17;101700.41;;;-1.95;92.73
49102;BME280;34913;47.520;19.186;2022-12-20T01:16:44;101715.97;;;-1.88;92.92
49102;BME280;34913;47.520;19.186;2022-12-20T01:19:12;101714.22;;;-1.81;92.85
49102;BME280;34913;47.520;19.186;2022-12-20T01:21:39;101694.31;;;-1.93;92.55
49102;BME280;34913;47.520;19.186;2022-12-20T01:24:09;101706.41;;;-1.80;92.39
49102;BME280;34913;47.520;19.186;2022-12-20T01:26:35;101685.63;;;-1.90;92.48
49102;BME280;34913;47.520;19.186;2022-12-20T01:29:00;101695.97;;;-1.77;92.24
49102;BME280;34913;47.520;19.186;2022-12-20T01:31:27;101703.78;;;-1.77;92.14
49102;BME280;34913;47.520;19.186;2022-12-20T01:33:53;101695.06;;;-1.68;91.81
49102;BME280;34913;47.520;19.186;2022-12-20T01:36:21;101689.88;;;-1.70;91.77
49102;BME280;34913;47.520;19.186;2022-12-20T01:38:49;101691.63;;;-1.76;91.67
49102;BME280;34913;47.520;19.186;2022-12-20T01:41:20;101686.41;;;-1.76;91.55
49102;BME280;34913;47.520;19.186;2022-12-20T01:46:48;101669.13;;;-1.86;91.93
49102;BME280;34913;47.520;19.186;2022-12-20T01:49:31;101673.41;;;-1.76;91.66
49102;BME280;34913;47.520;19.186;2022-12-20T01:54:24;101657.03;;;-1.95;92.29
49102;BME280;34913;47.520;19.186;2022-12-20T01:57:01;101657.00;;;-1.90;92.65
49102;BME280;34913;47.520;19.186;2022-12-20T01:59:28;101648.34;;;-1.99;92.56
49102;BME280;34913;47.520;19.186;2022-12-20T02:01:57;101644.00;;;-1.93;92.72
49102;BME280;34913;47.520;19.186;2022-12-20T02:04:24;101649.19;;;-1.92;92.69
49102;BME280;34913;47.520;19.186;2022-12-20T02:06:49;101637.94;;;-1.92;92.90
49102;BME280;34913;47.520;19.186;2022-12-20T02:09:15;101630.97;;;-1.89;92.50
49102;BME280;34913;47.520;19.186;2022-12-20T02:11:54;101624.00;;;-1.85;92.17
49102;BME280;34913;47.520;19.186;2022-12-20T02:26:13;101630.00;;;-1.74;91.81
49102;BME280;34913;47.520;19.186;2022-12-20T02:31:38;101612.72;;;-1.83;91.62
49102;BME280;34913;47.520;19.186;2022-12-20T02:34:05;101627.34;;;-1.62;91.44
49102;BME280;34913;47.520;19.186;2022-12-20T02:36:31;101621.25;;;-1.59;90.80
49102;BME280;34913;47.520;19.186;2022-12-20T02:38:56;101630.81;;;-1.61;90.53
49102;BME280;34913;47.520;19.186;2022-12-20T02:41:38;101636.06;;;-1.71;90.67
49102;BME280;34913;47.520;19.186;2022-12-20T02:44:11;101631.69;;;-1.67;91.06
49102;BME280;34913;47.520;19.186;2022-12-20T02:46:57;101640.34;;;-1.62;90.71
49102;BME280;34913;47.520;19.186;2022-12-20T02:49:28;101635.97;;;-1.58;90.77
49102;BME280;34913;47.520;19.186;2022-12-20T02:51:56;101637.75;;;-1.60;90.60
49102;BME280;34913;47.520;19.186;2022-12-20T02:54:23;101631.69;;;-1.64;90.34
49102;BME280;34913;47.520;19.186;2022-12-20T02:56:59;101632.47;;;-1.51;90.30
49102;BME280;34913;47.520;19.186;2022-12-20T02:59:40;101623.75;;;-1.46;90.07
49102;BME280;34913;47.520;19.186;2022-12-20T03:02:08;101617.69;;;-1.51;89.99
49102;BME280;34913;47.520;19.186;2022-12-20T03:04:36;101600.28;;;-1.39;90.09
49102;BME280;34913;47.520;19.186;2022-12-20T03:07:06;101594.16;;;-1.32;89.41
49102;BME280;34913;47.520;19.186;2022-12-20T03:09:34;101592.38;;;-1.30;89.09
49102;BME280;34913;47.520;19.186;2022-12-20T03:12:01;101586.28;;;-1.28;89.28
49102;BME280;34913;47.520;19.186;2022-12-20T03:14:27;101578.47;;;-1.26;89.00
49102;BME280;34913;47.520;19.186;2022-12-20T03:16:52;101576.75;;;-1.29;88.80
49102;BME280;34913;47.520;19.186;2022-12-20T03:19:18;101575.88;;;-1.26;88.84
49102;BME280;34913;47.520;19.186;2022-12-20T03:21:43;101577.66;;;-1.34;88.78
49102;BME280;34913;47.520;19.186;2022-12-20T03:24:09;101573.28;;;-1.31;89.35
49102;BME280;34913;47.520;19.186;2022-12-20T03:26:36;101582.88;;;-1.33;89.31
49102;BME280;34913;47.520;19.186;2022-12-20T03:29:03;101567.13;;;-1.22;89.36
49102;BME280;34913;47.520;19.186;2022-12-20T03:31:29;101563.69;;;-1.24;88.63
49102;BME280;34913;47.520;19.186;2022-12-20T03:33:54;101565.38;;;-1.22;88.67
49102;BME280;34913;47.520;19.186;2022-12-20T03:36:20;101569.69;;;-1.16;88.10
49102;BME280;34913;47.520;19.186;2022-12-20T03:38:49;101559.31;;;-1.22;88.14
49102;BME280;34913;47.520;19.186;2022-12-20T03:41:14;101565.38;;;-1.20;88.43
49102;BME280;34913;47.520;19.186;2022-12-20T03:43:40;101575.69;;;-1.08;87.43
49102;BME280;34913;47.520;19.186;2022-12-20T03:46:05;101570.63;;;-1.23;87.96
49102;BME280;34913;47.520;19.186;2022-12-20T03:48:31;101579.25;;;-1.17;88.29
49102;BME280;34913;47.520;19.186;2022-12-20T03:50:56;101578.31;;;-1.09;87.35
49102;BME280;34913;47.520;19.186;2022-12-20T03:53:22;101580.91;;;-1.09;87.32
49102;BME280;34913;47.520;19.186;2022-12-20T03:55:47;101573.03;;;-1.03;87.26
49102;BME280;34913;47.520;19.186;2022-12-20T03:58:12;101559.97;;;-1.00;86.70
49102;BME280;34913;47.520;19.186;2022-12-20T04:00:38;101571.25;;;-1.00;86.45
49102;BME280;34913;47.520;19.186;2022-12-20T04:03:03;101567.84;;;-1.06;86.67
49102;BME280;34913;47.520;19.186;2022-12-20T04:05:29;101556.63;;;-1.10;86.72
49102;BME280;34913;47.520;19.186;2022-12-20T04:07:54;101559.28;;;-1.18;86.90
49102;BME280;34913;47.520;19.186;2022-12-20T04:10:20;101560.94;;;-1.12;86.96
49102;BME280;34913;47.520;19.186;2022-12-20T04:12:45;101551.44;;;-1.15;86.84
49102;BME280;34913;47.520;19.186;2022-12-20T04:15:10;101545.44;;;-1.24;86.81
49102;BME280;34913;47.520;19.186;2022-12-20T04:17:36;101557.47;;;-1.11;86.93
49102;BME280;34913;47.520;19.186;2022-12-20T04:20:01;101548.06;;;-1.27;87.10
49102;BME280;34913;47.520;19.186;2022-12-20T04:22:47;101540.28;;;-1.30;87.80
49102;BME280;34913;47.520;19.186;2022-12-20T04:25:14;101538.56;;;-1.34;87.98
49102;BME280;34913;47.520;19.186;2022-12-20T04:27:39;101529.84;;;-1.29;88.06
49102;BME280;34913;47.520;19.186;2022-12-20T04:30:05;101515.06;;;-1.25;87.39
49102;BME280;34913;47.520;19.186;2022-12-20T04:32:31;101520.28;;;-1.28;87.68
49102;BME280;34913;47.520;19.186;2022-12-20T04:34:56;101526.38;;;-1.28;87.94
49102;BME280;34913;47.520;19.186;2022-12-20T04:37:22;101510.72;;;-1.25;87.77
49102;BME280;34913;47.520;19.186;2022-12-20T04:39:47;101516.81;;;-1.29;87.82
49102;BME280;34913;47.520;19.186;2022-12-20T04:42:12;101517.69;;;-1.25;88.07
49102;BME280;34913;47.520;19.186;2022-12-20T04:44:38;101514.16;;;-1.21;87.47
49102;BME280;34913;47.520;19.186;2022-12-20T04:47:03;101528.06;;;-1.22;87.75
49102;BME280;34913;47.520;19.186;2022-12-20T04:49:29;101534.16;;;-1.25;87.72
49102;BME280;34913;47.520;19.186;2022-12-20T04:51:54;101524.59;;;-1.24;87.65
49102;BME280;34913;47.520;19.186;2022-12-20T04:54:39;101535.88;;;-1.22;87.90
49102;BME280;34913;47.520;19.186;2022-12-20T04:57:05;101532.38;;;-1.20;87.83
49102;BME280;34913;47.520;19.186;2022-12-20T04:59:30;101534.91;;;-1.12;87.73
49102;BME280;34913;47.520;19.186;2022-12-20T05:01:55;101515.06;;;-1.27;87.63
49102;BME280;34913;47.520;19.186;2022-12-20T05:04:21;101539.28;;;-1.16;87.54
49102;BME280;34913;47.520;19.186;2022-12-20T05:06:46;101534.97;;;-1.18;87.49
49102;BME280;34913;47.520;19.186;2022-12-20T05:09:12;101545.38;;;-1.17;87.50
49102;BME280;34913;47.520;19.186;2022-12-20T05:11:37;101542.69;;;-1.09;87.53
49102;BME280;34913;47.520;19.186;2022-12-20T05:14:03;101547.94;;;-1.10;87.18
49102;BME280;34913;47.520;19.186;2022-12-20T05:16:28;101553.97;;;-1.07;87.46
49102;BME280;34913;47.520;19.186;2022-12-20T05:18:53;101552.22;;;-1.06;87.09
49102;BME280;34913;47.520;19.186;2022-12-20T05:21:19;101557.41;;;-1.02;87.14
49102;BME280;34913;47.520;19.186;2022-12-20T05:24:03;101564.28;;;-0.98;87.32
49102;BME280;34913;47.520;19.186;2022-12-20T05:26:47;101555.66;;;-1.01;87.11
49102;BME280;34913;47.520;19.186;2022-12-20T05:29:12;101556.53;;;-1.02;86.86
49102;BME280;34913;47.520;19.186;2022-12-20T05:31:38;101554.84;;;-1.11;87.53
49102;BME280;34913;47.520;19.186;2022-12-20T05:34:03;101546.34;;;-1.25;87.74
49102;BME280;34913;47.520;19.186;2022-12-20T05:36:29;101561.88;;;-1.16;87.82
49102;BME280;34913;47.520;19.186;2022-12-20T05:38:54;101556.69;;;-1.21;87.91
49102;BME280;34913;47.520;19.186;2022-12-20T05:41:19;101557.63;;;-1.29;87.93
49102;BME280;34913;47.520;19.186;2022-12-20T05:43:45;101556.75;;;-1.28;88.61
49102;BME280;34913;47.520;19.186;2022-12-20T05:46:11;101546.31;;;-1.27;88.45
49102;BME280;34913;47.520;19.186;2022-12-20T05:48:36;101556.75;;;-1.25;88.36
49102;BME280;34913;47.520;19.186;2022-12-20T05:51:02;101560.16;;;-1.20;88.20
49102;BME280;34913;47.520;19.186;2022-12-20T05:53:28;101564.44;;;-1.13;87.80
49102;BME280;34913;47.520;19.186;2022-12-20T05:55:54;101561.03;;;-1.21;87.74
49102;BME280;34913;47.520;19.186;2022-12-20T05:58:20;101542.00;;;-1.29;88.33
49102;BME280;34913;47.520;19.186;2022-12-20T06:00:46;101543.72;;;-1.25;88.32
49102;BME280;34913;47.520;19.186;2022-12-20T06:03:11;101541.97;;;-1.23;88.35
49102;BME280;34913;47.520;19.186;2022-12-20T06:05:39;101543.78;;;-1.34;88.64
49102;BME280;34913;47.520;19.186;2022-12-20T06:08:06;101535.22;;;-1.46;89.00
49102;BME280;34913;47.520;19.186;2022-12-20T06:10:33;101527.25;;;-1.30;91.53
49102;BME280;34913;47.520;19.186;2022-12-20T06:13:01;101523.91;;;-1.42;89.40
49102;BME280;34913;47.520;19.186;2022-12-20T06:15:27;101510.94;;;-1.48;89.36
49102;BME280;34913;47.520;19.186;2022-12-20T06:17:53;101511.75;;;-1.43;89.62
49102;BME280;34913;47.520;19.186;2022-12-20T06:20:18;101510.91;;;-1.46;90.05
49102;BME280;34913;47.520;19.186;2022-12-20T06:22:44;101513.47;;;-1.38;89.85
49102;BME280;34913;47.520;19.186;2022-12-20T06:25:09;101510.00;;;-1.39;89.30
49102;BME280;34913;47.520;19.186;2022-12-20T06:27:36;101505.69;;;-1.42;89.19
49102;BME280;34913;47.520;19.186;2022-12-20T06:30:04;101503.91;;;-1.39;89.37
49102;BME280;34913;47.520;19.186;2022-12-20T06:32:29;101505.72;;;-1.46;88.99
49102;BME280;34913;47.520;19.186;2022-12-20T06:34:55;101495.38;;;-1.55;89.61
49102;BME280;34913;47.520;19.186;2022-12-20T06:37:20;101510.13;;;-1.54;89.99
49102;BME280;34913;47.520;19.186;2022-12-20T06:39:45;101502.25;;;-1.47;89.46
49102;BME280;34913;47.520;19.186;2022-12-20T06:42:11;101497.84;;;-1.43;89.75
49102;BME280;34913;47.520;19.186;2022-12-20T06:44:36;101494.47;;;-1.48;89.31
49102;BME280;34913;47.520;19.186;2022-12-20T06:47:02;101493.66;;;-1.56;89.54
49102;BME280;34913;47.520;19.186;2022-12-20T06:49:27;101495.38;;;-1.55;89.84
49102;BME280;34913;47.520;19.186;2022-12-20T06:51:54;101495.38;;;-1.54;89.96
49102;BME280;34913;47.520;19.186;2022-12-20T06:54:19;101496.19;;;-1.49;89.42
49102;BME280;34913;47.520;19.186;2022-12-20T06:56:45;101487.47;;;-1.45;89.36
49102;BME280;34913;47.520;19.186;2022-12-20T06:59:10;101481.34;;;-1.39;89.36
49102;BME280;34913;47.520;19.186;2022-12-20T07:01:35;101482.16;;;-1.35;88.73
49102;BME280;34913;47.520;19.186;2022-12-20T07:04:01;101483.03;;;-1.36;88.59
49102;BME280;34913;47.520;19.186;2022-12-20T07:06:26;101478.59;;;-1.25;88.44
49102;BME280;34913;47.520;19.186;2022-12-20T07:08:54;101480.44;;;-1.36;88.18
49102;BME280;34913;47.520;19.186;2022-12-20T07:11:19;101465.63;;;-1.31;88.67
49102;BME280;34913;47.520;19.186;2022-12-20T07:13:44;101459.50;;;-1.27;88.27
49102;BME280;34913;47.520;19.186;2022-12-20T07:16:10;101462.94;;;-1.22;87.85
49102;BME280;34913;47.520;19.186;2022-12-20T07:18:35;101464.56;;;-1.14;87.14
49102;BME280;34913;47.520;19.186;2022-12-20T07:21:03;101468.88;;;-1.09;87.01
49102;BME280;34913;47.520;19.186;2022-12-20T07:23:29;101456.91;;;-1.26;87.23
49102;BME280;34913;47.520;19.186;2022-12-20T07:25:56;101475.00;;;-1.14;87.53
49102;BME280;34913;47.520;19.186;2022-12-20T07:28:22;101487.06;;;-1.05;86.83
49102;BME280;34913;47.520;19.186;2022-12-20T07:30:48;101494.13;;;-1.15;86.54
49102;BME280;34913;47.520;19.186;2022-12-20T07:33:13;101488.03;;;-1.14;86.79
49102;BME280;34913;47.520;19.186;2022-12-20T07:35:39;101489.66;;;-1.05;86.67
49102;BME280;34913;47.520;19.186;2022-12-20T07:38:04;101494.00;;;-1.02;86.59
49102;BME280;34913;47.520;19.186;2022-12-20T07:40:30;101488.59;;;-0.89;86.27
49102;BME280;34913;47.520;19.186;2022-12-20T07:42:55;101493.72;;;-0.78;85.27
49102;BME280;34913;47.520;19.186;2022-12-20T07:45:20;101489.41;;;-0.82;84.84
49102;BME280;34913;47.520;19.186;2022-12-20T07:47:46;101486.69;;;-0.73;85.10
49102;BME280;34913;47.520;19.186;2022-12-20T07:50:11;101486.69;;;-0.74;84.34
49102;BME280;34913;47.520;19.186;2022-12-20T07:52:38;101476.16;;;-0.65;84.68
49102;BME280;34913;47.520;19.186;2022-12-20T07:55:07;101485.56;;;-0.53;83.44
49102;BME280;34913;47.520;19.186;2022-12-20T07:57:39;101481.19;;;-0.51;83.59
49102;BME280;34913;47.520;19.186;2022-12-20T08:00:07;101479.31;;;-0.42;83.11
49102;BME280;34913;47.520;19.186;2022-12-20T08:02:40;101479.34;;;-0.43;83.14
49102;BME280;34913;47.520;19.186;2022-12-20T08:05:08;101484.66;;;-0.51;82.98
49102;BME280;34913;47.520;19.186;2022-12-20T08:07:35;101485.38;;;-0.38;82.68
49102;BME280;34913;47.520;19.186;2022-12-20T08:10:06;101481.91;;;-0.39;82.99
49102;BME280;34913;47.520;19.186;2022-12-20T08:12:33;101469.84;;;-0.47;82.93
49102;BME280;34913;47.520;19.186;2022-12-20T08:14:58;101458.63;;;-0.54;83.12
49102;BME280;34913;47.520;19.186;2022-12-20T08:17:24;101451.69;;;-0.57;82.72
49102;BME280;34913;47.520;19.186;2022-12-20T08:19:49;101453.75;;;-0.78;83.41
49102;BME280;34913;47.520;19.186;2022-12-20T08:22:18;101443.31;;;-0.80;83.79
49102;BME280;34913;47.520;19.186;2022-12-20T08:24:45;101444.03;;;-0.67;83.53
49102;BME280;34913;47.520;19.186;2022-12-20T08:27:10;101451.81;;;-0.66;83.41
49102;BME280;34913;47.520;19.186;2022-12-20T08:29:36;101432.69;;;-0.65;83.37
49102;BME280;34913;47.520;19.186;2022-12-20T08:32:01;101441.44;;;-0.69;83.45
49102;BME280;34913;47.520;19.186;2022-12-20T08:34:26;101445.81;;;-0.72;83.69
49102;BME280;34913;47.520;19.186;2022-12-20T08:36:52;101447.47;;;-0.65;83.30
49102;BME280;34913;47.520;19.186;2022-12-20T08:39:17;101437.84;;;-0.60;83.33
49102;BME280;34913;47.520;19.186;2022-12-20T08:41:43;101446.34;;;-0.46;82.79
49102;BME280;34913;47.520;19.186;2022-12-20T08:44:08;101442.69;;;-0.34;82.87
49102;BME280;34913;47.520;19.186;2022-12-20T08:46:35;101432.94;;;-0.21;82.11
49102;BME280;34913;47.520;19.186;2022-12-20T08:49:02;101437.97;;;-0.08;81.42
49102;BME280;34913;47.520;19.186;2022-12-20T08:51:27;101430.03;;;-0.03;80.52
49102;BME280;34913;47.520;19.186;2022-12-20T08:53:53;101439.44;;;0.09;80.15
49102;BME280;34913;47.520;19.186;2022-12-20T08:56:18;101440.91;;;0.25;78.99
49102;BME280;34913;47.520;19.186;2022-12-20T08:58:44;101433.97;;;0.22;78.88
49102;BME280;34913;47.520;19.186;2022-12-20T09:01:15;101433.06;;;0.25;78.38
49102;BME280;34913;47.520;19.186;2022-12-20T09:03:41;101435.56;;;0.30;78.41
49102;BME280;34913;47.520;19.186;2022-12-20T09:06:12;101433.78;;;0.33;78.05
49102;BME280;34913;47.520;19.186;2022-12-20T09:08:39;101436.81;;;0.58;78.75
49102;BME280;34913;47.520;19.186;2022-12-20T09:13:30;101437.47;;;0.69;76.04
49102;BME280;34913;47.520;19.186;2022-12-20T09:15:55;101441.91;;;0.66;76.35
49102;BME280;34913;47.520;19.186;2022-12-20T09:18:20;101445.31;;;0.69;75.35
49102;BME280;34913;47.520;19.186;2022-12-20T09:20:46;101441.66;;;0.79;75.57
49102;BME280;34913;47.520;19.186;2022-12-20T09:23:11;101441.50;;;0.87;75.33
49102;BME280;34913;47.520;19.186;2022-12-20T09:25:37;101428.59;;;0.79;74.96
49102;BME280;34913;47.520;19.186;2022-12-20T09:28:04;101434.75;;;0.75;74.56
49102;BME280;34913;47.520;19.186;2022-12-20T09:30:29;101425.13;;;0.77;74.41
49102;BME280;34913;47.520;19.186;2022-12-20T09:32:55;101424.75;;;0.97;73.86
49102;BME280;34913;47.520;19.186;2022-12-20T09:35:21;101419.28;;;1.08;73.93
49102;BME280;34913;47.520;19.186;2022-12-20T09:37:46;101422.00;;;1.03;74.05
49102;BME280;34913;47.520;19.186;2022-12-20T09:40:20;101408.19;;;0.97;74.10
49102;BME280;34913;47.520;19.186;2022-12-20T09:42:47;101408.84;;;1.06;73.57
49102;BME280;34913;47.520;19.186;2022-12-20T09:45:22;101404.19;;;1.21;72.96
49102;BME280;34913;47.520;19.186;2022-12-20T09:47:49;101396.19;;;1.28;72.55
49102;BME280;34913;47.520;19.186;2022-12-20T09:50:18;101393.28;;;1.40;71.95
49102;BME280;34913;47.520;19.186;2022-12-20T09:53:10;101403.34;;;1.59;71.31
49102;BME280;34913;47.520;19.186;2022-12-20T10:01:28;101383.75;;;1.38;71.58
49102;BME280;34913;47.520;19.186;2022-12-20T10:03:56;101378.19;;;1.53;71.58
49102;BME280;34913;47.520;19.186;2022-12-20T10:06:39;101384.00;;;1.64;70.93
49102;BME280;34913;47.520;19.186;2022-12-20T10:16:57;101369.59;;;1.84;70.15
49102;BME280;34913;47.520;19.186;2022-12-20T10:22:05;101352.78;;;1.92;69.36
49102;BME280;34913;47.520;19.186;2022-12-20T10:24:32;101359.56;;;2.01;69.69
49102;BME280;34913;47.520;19.186;2022-12-20T10:27:17;101338.06;;;2.22;68.21
49102;BME280;34913;47.520;19.186;2022-12-20T10:29:44;101331.34;;;2.43;67.30
49102;BME280;34913;47.520;19.186;2022-12-20T10:32:15;101340.53;;;2.58;66.80
49102;BME280;34913;47.520;19.186;2022-12-20T10:35:00;101328.13;;;2.34;67.74
49102;BME280;34913;47.520;19.186;2022-12-20T10:37:36;101319.78;;;2.50;67.30
49102;BME280;34913;47.520;19.186;2022-12-20T10:40:03;101316.41;;;2.76;66.43
49102;BME280;34913;47.520;19.186;2022-12-20T10:42:35;101307.56;;;2.80;65.85
49102;BME280;34913;47.520;19.186;2022-12-20T10:45:02;101306.91;;;2.43;66.65
49102;BME280;34913;47.520;19.186;2022-12-20T10:47:37;101306.06;;;2.42;67.75
49102;BME280;34913;47.520;19.186;2022-12-20T10:50:17;101318.38;;;2.70;66.54
49102;BME280;34913;47.520;19.186;2022-12-20T10:52:44;101305.56;;;2.89;66.47
49102;BME280;34913;47.520;19.186;2022-12-20T10:55:39;101296.97;;;2.84;65.71
49102;BME280;34913;47.520;19.186;2022-12-20T10:58:20;101294.09;;;2.93;66.36
49102;BME280;34913;47.520;19.186;2022-12-20T11:00:46;101291.63;;;2.88;64.87
49102;BME280;34913;47.520;19.186;2022-12-20T11:03:20;101285.34;;;2.64;66.40
49102;BME280;34913;47.520;19.186;2022-12-20T11:08:20;101275.44;;;2.74;65.90
49102;BME280;34913;47.520;19.186;2022-12-20T11:10:46;101269.22;;;2.78;65.74
49102;BME280;34913;47.520;19.186;2022-12-20T11:13:22;101264.31;;;2.66;66.59
49102;BME280;34913;47.520;19.186;2022-12-20T11:15:52;101248.41;;;2.72;65.23
49102;BME280;34913;47.520;19.186;2022-12-20T11:23:57;101261.19;;;3.11;63.88
49102;BME280;34913;47.520;19.186;2022-12-20T11:29:47;101252.00;;;3.25;62.89
49102;BME280;34913;47.520;19.186;2022-12-20T11:32:41;101248.16;;;3.35;62.25
49102;BME280;34913;47.520;19.186;2022-12-20T11:35:51;101240.16;;;3.39;62.81
49102;BME280;34913;47.520;19.186;2022-12-20T11:38:48;101220.69;;;3.19;63.17
49102;BME280;34913;47.520;19.186;2022-12-20T11:47:46;101223.31;;;3.19;63.85
49102;BME280;34913;47.520;19.186;2022-12-20T11:52:47;101223.69;;;3.35;62.48
49102;BME280;34913;47.520;19.186;2022-12-20T11:55:34;101209.91;;;3.28;63.84
49102;BME280;34913;47.520;19.186;2022-12-20T11:58:10;101213.72;;;3.45;63.40
49102;BME280;34913;47.520;19.186;2022-12-20T12:00:39;101208.81;;;3.60;61.42
49102;BME280;34913;47.520;19.186;2022-12-20T12:03:17;101220.16;;;3.61;62.35
49102;BME280;34913;47.520;19.186;2022-12-20T12:05:52;101219.41;;;3.32;62.23
49102;BME280;34913;47.520;19.186;2022-12-20T12:08:44;101219.75;;;3.47;62.39
49102;BME280;34913;47.520;19.186;2022-12-20T12:11:19;101214.50;;;3.48;62.45
49102;BME280;34913;47.520;19.186;2022-12-20T12:13:47;101197.44;;;3.60;61.53
49102;BME280;34913;47.520;19.186;2022-12-20T12:16:19;101208.34;;;3.74;62.06
49102;BME280;34913;47.520;19.186;2022-12-20T12:18:47;101201.63;;;3.90;62.05
49102;BME280;34913;47.520;19.186;2022-12-20T12:21:22;101200.25;;;3.80;61.58
49102;BME280;34913;47.520;19.186;2022-12-20T12:24:01;101200.41;;;3.51;63.00
49102;BME280;34913;47.520;19.186;2022-12-20T12:26:34;101200.34;;;3.52;62.84
49102;BME280;34913;47.520;19.186;2022-12-20T12:36:41;101185.63;;;3.22;63.40
49102;BME280;34913;47.520;19.186;2022-12-20T12:42:13;101175.06;;;2.70;65.44
49102;BME280;34913;47.520;19.186;2022-12-20T12:44:50;101168.25;;;2.65;65.50
49102;BME280;34913;47.520;19.186;2022-12-20T12:47:37;101171.19;;;2.82;65.56
49102;BME280;34913;47.520;19.186;2022-12-20T12:50:08;101168.25;;;2.65;65.58
49102;BME280;34913;47.520;19.186;2022-12-20T12:52:53;101169.59;;;2.76;65.35
49102;BME280;34913;47.520;19.186;2022-12-20T12:55:43;101170.38;;;2.52;65.83
49102;BME280;34913;47.520;19.186;2022-12-20T13:03:44;101168.59;;;2.52;66.25
49102;BME280;34913;47.520;19.186;2022-12-20T13:09:53;101171.63;;;2.40;66.82
49102;BME280;34913;47.520;19.186;2022-12-20T13:11:55;101147.41;;;2.03;67.54
49102;BME280;34913;47.520;19.186;2022-12-20T13:16:48;101166.09;;;2.20;71.87
49102;BME280;34913;47.520;19.186;2022-12-20T13:21:52;101152.16;;;2.19;71.91
49102;BME280;34913;47.520;19.186;2022-12-20T13:27:13;101154.84;;;1.87;73.03
49102;BME280;34913;47.520;19.186;2022-12-20T13:30:35;101139.72;;;1.65;74.08
49102;BME280;34913;47.520;19.186;2022-12-20T13:40:39;101134.69;;;1.90;73.85
49102;BME280;34913;47.520;19.186;2022-12-20T13:43:26;101119.63;;;1.67;74.12
49102;BME280;34913;47.520;19.186;2022-12-20T13:51:15;101146.47;;;1.43;75.48
49102;BME280;34913;47.520;19.186;2022-12-20T13:53:52;101135.16;;;1.41;75.83
49102;BME280;34913;47.520;19.186;2022-12-20T13:56:31;101131.69;;;1.40;76.53
49102;BME280;34913;47.520;19.186;2022-12-20T13:59:04;101129.72;;;1.50;75.89
49102;BME280;34913;47.520;19.186;2022-12-20T14:01:31;101116.53;;;1.53;75.94
49102;BME280;34913;47.520;19.186;2022-12-20T14:03:57;101120.25;;;1.45;75.58
49102;BME280;34913;47.520;19.186;2022-12-20T14:06:24;101107.22;;;1.43;75.96
49102;BME280;34913;47.520;19.186;2022-12-20T14:08:51;101102.00;;;1.42;76.44
49102;BME280;34913;47.520;19.186;2022-12-20T14:11:21;101093.09;;;1.49;76.03
49102;BME280;34913;47.520;19.186;2022-12-20T14:13:55;101099.38;;;1.43;76.39
49102;BME280;34913;47.520;19.186;2022-12-20T14:16:23;101099.53;;;1.37;76.20
49102;BME280;34913;47.520;19.186;2022-12-20T14:18:59;101094.41;;;1.32;76.40
49102;BME280;34913;47.520;19.186;2022-12-20T14:21:26;101089.94;;;1.37;76.48
49102;BME280;34913;47.520;19.186;2022-12-20T14:23:55;101084.66;;;1.39;76.34
49102;BME280;34913;47.520;19.186;2022-12-20T14:26:26;101086.31;;;1.42;76.37
49102;BME280;34913;47.520;19.186;2022-12-20T14:28:55;101095.91;;;1.43;76.31
49102;BME280;34913;47.520;19.186;2022-12-20T14:31:26;101100.59;;;1.30;76.66